sensor_id;sensor_type;location;lat;lon;timestamp;temperature;humidity
28959;DHT22;16066;0.000;0.000;2023-11-19T06:32:41;17.40;57.70
28959;DHT22;16066;0.000;0.000;2023-11-19T06:35:07;17.40;57.60
28959;DHT22;16066;0.000;0.000;2023-11-19T06:37:33;17.40;57.80
28959;DHT22;16066;0.000;0.000;2023-11-19T06:39:59;17.40;57.70
28959;DHT22;16066;0.000;0.000;2023-11-19T06:42:24;17.40;57.60
28959;DHT22;16066;0.000;0.000;2023-11-19T06:44:50;17.50;57.50
28959;DHT22;16066;0.000;0.000;2023-11-19T06:47:16;17.50;57.40
28959;DHT22;16066;0.000;0.000;2023-11-19T06:49:44;17.60;57.30
28959;DHT22;16066;0.000;0.000;2023-11-19T06:52:09;17.70;57.10
28959;DHT22;16066;0.000;0.000;2023-11-19T06:54:35;17.80;57.00
28959;DHT22;16066;0.000;0.000;2023-11-19T06:57:00;17.90;57.00
28959;DHT22;16066;0.000;0.000;2023-11-19T06:59:26;18.00;57.20
28959;DHT22;16066;0.000;0.000;2023-11-19T07:01:52;18.10;57.10
28959;DHT22;16066;0.000;0.000;2023-11-19T07:04:17;18.20;56.70
28959;DHT22;16066;0.000;0.000;2023-11-19T07:06:43;18.20;56.60
28959;DHT22;16066;0.000;0.000;2023-11-19T07:09:09;18.30;56.40
28959;DHT22;16066;0.000;0.000;2023-11-19T07:11:41;18.40;56.30
28959;DHT22;16066;0.000;0.000;2023-11-19T07:14:09;18.40;56.10
28959;DHT22;16066;0.000;0.000;2023-11-19T07:16:35;18.50;56.10
28959;DHT22;16066;0.000;0.000;2023-11-19T07:19:07;18.60;55.80
28959;DHT22;16066;0.000;0.000;2023-11-19T07:21:33;18.70;55.70
28959;DHT22;16066;0.000;0.000;2023-11-19T07:23:59;18.70;55.60
28959;DHT22;16066;0.000;0.000;2023-11-19T07:26:25;18.80;55.60
28959;DHT22;16066;0.000;0.000;2023-11-19T07:28:51;18.90;55.40
28959;DHT22;16066;0.000;0.000;2023-11-19T07:31:17;18.90;55.20
28959;DHT22;16066;0.000;0.000;2023-11-19T07:33:46;19.00;55.90
28959;DHT22;16066;0.000;0.000;2023-11-19T07:36:13;19.00;55.00
28959;DHT22;16066;0.000;0.000;2023-11-19T07:38:38;19.10;55.10
28959;DHT22;16066;0.000;0.000;2023-11-19T07:41:05;19.20;54.70
28959;DHT22;16066;0.000;0.000;2023-11-19T07:43:31;19.20;54.70
28959;DHT22;16066;0.000;0.000;2023-11-19T07:45:56;19.20;54.40
28959;DHT22;16066;0.000;0.000;2023-11-19T07:48:24;19.30;54.30
28959;DHT22;16066;0.000;0.000;2023-11-19T07:50:50;19.30;54.20
28959;DHT22;16066;0.000;0.000;2023-11-19T07:53:16;19.40;54.30
28959;DHT22;16066;0.000;0.000;2023-11-19T07:55:42;19.40;54.70
28959;DHT22;16066;0.000;0.000;2023-11-19T07:58:07;19.40;53.90
28959;DHT22;16066;0.000;0.000;2023-11-19T08:00:33;19.50;53.40
28959;DHT22;16066;0.000;0.000;2023-11-19T08:02:58;19.50;52.70
28959;DHT22;16066;0.000;0.000;2023-11-19T08:05:24;19.70;52.40
28959;DHT22;16066;0.000;0.000;2023-11-19T08:07:52;19.70;52.30
28959;DHT22;16066;0.000;0.000;2023-11-19T08:10:19;19.70;52.30
28959;DHT22;16066;0.000;0.000;2023-11-19T08:12:44;19.80;52.10
28959;DHT22;16066;0.000;0.000;2023-11-19T08:15:10;19.90;51.60
28959;DHT22;16066;0.000;0.000;2023-11-19T08:17:36;19.90;51.60
28959;DHT22;16066;0.000;0.000;2023-11-19T08:20:02;19.90;51.50
28959;DHT22;16066;0.000;0.000;2023-11-19T08:22:28;19.90;51.30
28959;DHT22;16066;0.000;0.000;2023-11-19T08:24:53;19.90;51.20
28959;DHT22;16066;0.000;0.000;2023-11-19T08:27:19;20.00;51.40
28959;DHT22;16066;0.000;0.000;2023-11-19T08:29:55;20.00;51.40
28959;DHT22;16066;0.000;0.000;2023-11-19T08:32:26;20.00;51.50
28959;DHT22;16066;0.000;0.000;2023-11-19T08:34:52;20.00;51.40
28959;DHT22;16066;0.000;0.000;2023-11-19T08:37:18;19.90;51.50
28959;DHT22;16066;0.000;0.000;2023-11-19T08:39:47;20.00;52.10
28959;DHT22;16066;0.000;0.000;2023-11-19T08:42:12;19.90;52.10
28959;DHT22;16066;0.000;0.000;2023-11-19T08:44:38;19.90;52.40
28959;DHT22;16066;0.000;0.000;2023-11-19T08:47:04;19.90;52.50
28959;DHT22;16066;0.000;0.000;2023-11-19T08:49:30;19.90;52.50
28959;DHT22;16066;0.000;0.000;2023-11-19T08:51:55;19.90;52.40
28959;DHT22;16066;0.000;0.000;2023-11-19T08:54:21;19.90;52.90
28959;DHT22;16066;0.000;0.000;2023-11-19T08:56:48;19.90;53.20
28959;DHT22;16066;0.000;0.000;2023-11-19T08:59:14;19.90;53.40
28959;DHT22;16066;0.000;0.000;2023-11-19T09:01:40;19.90;53.20
28959;DHT22;16066;0.000;0.000;2023-11-19T09:04:06;19.90;53.10
28959;DHT22;16066;0.000;0.000;2023-11-19T09:06:32;19.90;53.00
28959;DHT22;16066;0.000;0.000;2023-11-19T09:08:57;19.90;52.90
28959;DHT22;16066;0.000;0.000;2023-11-19T09:11:26;19.90;52.90
28959;DHT22;16066;0.000;0.000;2023-11-19T09:13:52;19.90;52.70
28959;DHT22;16066;0.000;0.000;2023-11-19T09:16:18;19.80;52.60
28959;DHT22;16066;0.000;0.000;2023-11-19T09:18:43;19.90;52.80
28959;DHT22;16066;0.000;0.000;2023-11-19T09:21:11;19.80;52.70
28959;DHT22;16066;0.000;0.000;2023-11-19T09:23:36;19.90;52.70
28959;DHT22;16066;0.000;0.000;2023-11-19T09:26:05;20.00;52.80
28959;DHT22;16066;0.000;0.000;2023-11-19T09:28:30;20.00;52.70
28959;DHT22;16066;0.000;0.000;2023-11-19T09:30:56;19.90;52.70
28959;DHT22;16066;0.000;0.000;2023-11-19T09:33:22;19.90;52.50
28959;DHT22;16066;0.000;0.000;2023-11-19T09:35:47;19.90;52.60
28959;DHT22;16066;0.000;0.000;2023-11-19T09:38:15;19.90;52.40
28959;DHT22;16066;0.000;0.000;2023-11-19T09:40:40;19.80;52.20
28959;DHT22;16066;0.000;0.000;2023-11-19T09:43:07;19.80;52.10
28959;DHT22;16066;0.000;0.000;2023-11-19T09:45:47;19.80;52.00
28959;DHT22;16066;0.000;0.000;2023-11-19T09:48:15;19.80;52.10
28959;DHT22;16066;0.000;0.000;2023-11-19T09:50:42;19.70;52.00
28959;DHT22;16066;0.000;0.000;2023-11-19T09:53:07;19.70;52.10
28959;DHT22;16066;0.000;0.000;2023-11-19T09:55:33;19.70;52.20
28959;DHT22;16066;0.000;0.000;2023-11-19T09:58:00;19.70;52.40
28959;DHT22;16066;0.000;0.000;2023-11-19T10:00:27;19.60;52.30
28959;DHT22;16066;0.000;0.000;2023-11-19T10:02:54;19.60;52.00
28959;DHT22;16066;0.000;0.000;2023-11-19T10:05:20;19.50;52.00
28959;DHT22;16066;0.000;0.000;2023-11-19T10:07:46;19.50;51.80
28959;DHT22;16066;0.000;0.000;2023-11-19T10:10:12;19.50;51.90
28959;DHT22;16066;0.000;0.000;2023-11-19T10:12:44;19.50;52.40
28959;DHT22;16066;0.000;0.000;2023-11-19T10:15:17;19.50;52.30
28959;DHT22;16066;0.000;0.000;2023-11-19T10:17:44;19.40;52.20
28959;DHT22;16066;0.000;0.000;2023-11-19T10:20:10;19.40;52.20
28959;DHT22;16066;0.000;0.000;2023-11-19T10:22:38;19.40;52.10
28959;DHT22;16066;0.000;0.000;2023-11-19T10:25:08;19.40;52.20
28959;DHT22;16066;0.000;0.000;2023-11-19T10:27:46;19.40;52.30
28959;DHT22;16066;0.000;0.000;2023-11-19T10:30:12;19.40;52.10
28959;DHT22;16066;0.000;0.000;2023-11-19T10:32:37;19.30;52.10
28959;DHT22;16066;0.000;0.000;2023-11-19T10:35:06;19.30;52.50
28959;DHT22;16066;0.000;0.000;2023-11-19T10:37:32;19.30;52.30
28959;DHT22;16066;0.000;0.000;2023-11-19T10:40:00;19.30;52.20
28959;DHT22;16066;0.000;0.000;2023-11-19T10:42:26;19.30;52.50
28959;DHT22;16066;0.000;0.000;2023-11-19T10:44:51;19.30;52.60
28959;DHT22;16066;0.000;0.000;2023-11-19T10:47:19;19.30;52.50
28959;DHT22;16066;0.000;0.000;2023-11-19T10:49:45;19.30;52.40
28959;DHT22;16066;0.000;0.000;2023-11-19T10:52:18;19.30;52.60
28959;DHT22;16066;0.000;0.000;2023-11-19T10:54:50;19.20;52.50
28959;DHT22;16066;0.000;0.000;2023-11-19T10:57:21;19.20;52.70
28959;DHT22;16066;0.000;0.000;2023-11-19T10:59:52;19.20;52.60
28959;DHT22;16066;0.000;0.000;2023-11-19T11:02:24;19.20;52.80
28959;DHT22;16066;0.000;0.000;2023-11-19T11:04:51;19.20;53.00
28959;DHT22;16066;0.000;0.000;2023-11-19T11:07:21;19.20;52.90
28959;DHT22;16066;0.000;0.000;2023-11-19T11:09:48;19.20;53.00
28959;DHT22;16066;0.000;0.000;2023-11-19T11:12:15;19.20;52.60
28959;DHT22;16066;0.000;0.000;2023-11-19T11:14:44;19.20;52.60
28959;DHT22;16066;0.000;0.000;2023-11-19T11:17:12;19.20;52.70
28959;DHT22;16066;0.000;0.000;2023-11-19T11:19:42;19.20;52.80
28959;DHT22;16066;0.000;0.000;2023-11-19T11:22:08;19.30;52.80
28959;DHT22;16066;0.000;0.000;2023-11-19T11:24:58;19.30;52.60
28959;DHT22;16066;0.000;0.000;2023-11-19T11:31:21;19.30;52.30
28959;DHT22;16066;0.000;0.000;2023-11-19T11:38:17;19.40;52.40
28959;DHT22;16066;0.000;0.000;2023-11-19T11:41:22;19.40;52.20
28959;DHT22;16066;0.000;0.000;2023-11-19T11:43:48;19.40;52.00
28959;DHT22;16066;0.000;0.000;2023-11-19T11:46:53;19.50;52.10
28959;DHT22;16066;0.000;0.000;2023-11-19T11:49:25;19.50;51.80
28959;DHT22;16066;0.000;0.000;2023-11-19T11:52:00;19.50;51.80
28959;DHT22;16066;0.000;0.000;2023-11-19T11:54:27;19.50;51.30
28959;DHT22;16066;0.000;0.000;2023-11-19T11:57:10;19.50;51.40
28959;DHT22;16066;0.000;0.000;2023-11-19T11:59:46;19.60;51.20
28959;DHT22;16066;0.000;0.000;2023-11-19T12:02:14;19.60;51.20
28959;DHT22;16066;0.000;0.000;2023-11-19T12:04:41;19.60;51.00
28959;DHT22;16066;0.000;0.000;2023-11-19T12:07:16;19.60;50.90
28959;DHT22;16066;0.000;0.000;2023-11-19T12:09:46;19.60;51.10
28959;DHT22;16066;0.000;0.000;2023-11-19T12:12:19;19.60;51.10
28959;DHT22;16066;0.000;0.000;2023-11-19T12:20:05;19.60;50.90
28959;DHT22;16066;0.000;0.000;2023-11-19T12:22:37;19.60;51.00
28959;DHT22;16066;0.000;0.000;2023-11-19T12:25:05;19.60;51.10
28959;DHT22;16066;0.000;0.000;2023-11-19T12:27:32;19.60;51.20
28959;DHT22;16066;0.000;0.000;2023-11-19T12:29:59;19.60;51.10
28959;DHT22;16066;0.000;0.000;2023-11-19T12:32:25;19.60;50.80
28959;DHT22;16066;0.000;0.000;2023-11-19T12:34:50;19.60;50.80
28959;DHT22;16066;0.000;0.000;2023-11-19T12:37:16;19.60;50.90
28959;DHT22;16066;0.000;0.000;2023-11-19T12:39:41;19.50;50.70
28959;DHT22;16066;0.000;0.000;2023-11-19T12:42:07;19.60;50.80
28959;DHT22;16066;0.000;0.000;2023-11-19T12:44:33;19.50;50.50
28959;DHT22;16066;0.000;0.000;2023-11-19T12:47:03;19.60;50.40
28959;DHT22;16066;0.000;0.000;2023-11-19T12:49:30;19.50;50.50
28959;DHT22;16066;0.000;0.000;2023-11-19T12:51:55;19.50;50.50
28959;DHT22;16066;0.000;0.000;2023-11-19T12:54:32;19.50;50.70
28959;DHT22;16066;0.000;0.000;2023-11-19T12:56:58;19.50;50.60
28959;DHT22;16066;0.000;0.000;2023-11-19T12:59:24;19.50;50.80
28959;DHT22;16066;0.000;0.000;2023-11-19T13:01:58;19.50;50.90
28959;DHT22;16066;0.000;0.000;2023-11-19T13:04:28;19.50;50.90
28959;DHT22;16066;0.000;0.000;2023-11-19T13:06:56;19.50;51.10
28959;DHT22;16066;0.000;0.000;2023-11-19T13:09:26;19.50;51.20
28959;DHT22;16066;0.000;0.000;2023-11-19T13:11:52;19.50;51.20
28959;DHT22;16066;0.000;0.000;2023-11-19T13:14:18;19.50;50.80
28959;DHT22;16066;0.000;0.000;2023-11-19T13:16:44;19.50;50.70
28959;DHT22;16066;0.000;0.000;2023-11-19T13:19:13;19.50;50.70
28959;DHT22;16066;0.000;0.000;2023-11-19T13:21:39;19.60;51.20
28959;DHT22;16066;0.000;0.000;2023-11-19T13:24:09;19.60;50.70
28959;DHT22;16066;0.000;0.000;2023-11-19T13:26:34;19.70;50.70
28959;DHT22;16066;0.000;0.000;2023-11-19T13:29:00;19.60;50.60
28959;DHT22;16066;0.000;0.000;2023-11-19T13:31:26;19.70;50.40
28959;DHT22;16066;0.000;0.000;2023-11-19T13:33:51;19.70;50.50
28959;DHT22;16066;0.000;0.000;2023-11-19T13:36:17;19.70;50.50
28959;DHT22;16066;0.000;0.000;2023-11-19T13:38:42;19.70;50.50
28959;DHT22;16066;0.000;0.000;2023-11-19T13:41:09;19.70;50.30
28959;DHT22;16066;0.000;0.000;2023-11-19T13:43:36;19.70;50.40
28959;DHT22;16066;0.000;0.000;2023-11-19T13:46:03;19.70;50.50
28959;DHT22;16066;0.000;0.000;2023-11-19T13:48:29;19.70;50.40
28959;DHT22;16066;0.000;0.000;2023-11-19T13:50:55;19.70;50.40
28959;DHT22;16066;0.000;0.000;2023-11-19T13:53:21;19.70;50.90
28959;DHT22;16066;0.000;0.000;2023-11-19T13:55:47;19.60;50.40
28959;DHT22;16066;0.000;0.000;2023-11-19T13:58:15;19.70;50.40
28959;DHT22;16066;0.000;0.000;2023-11-19T14:00:42;19.60;50.50
28959;DHT22;16066;0.000;0.000;2023-11-19T14:03:08;19.60;50.40
28959;DHT22;16066;0.000;0.000;2023-11-19T14:05:35;19.60;50.60
28959;DHT22;16066;0.000;0.000;2023-11-19T14:08:01;19.60;50.70
28959;DHT22;16066;0.000;0.000;2023-11-19T14:10:26;19.50;50.80
28959;DHT22;16066;0.000;0.000;2023-11-19T14:12:52;19.50;50.90
28959;DHT22;16066;0.000;0.000;2023-11-19T14:15:18;19.50;51.30
28959;DHT22;16066;0.000;0.000;2023-11-19T14:17:43;19.50;51.00
28959;DHT22;16066;0.000;0.000;2023-11-19T14:20:09;19.50;51.10
28959;DHT22;16066;0.000;0.000;2023-11-19T14:22:41;19.40;51.40
28959;DHT22;16066;0.000;0.000;2023-11-19T14:25:08;19.40;51.30
28959;DHT22;16066;0.000;0.000;2023-11-19T14:27:39;19.30;51.50
28959;DHT22;16066;0.000;0.000;2023-11-19T14:30:07;19.30;52.00
28959;DHT22;16066;0.000;0.000;2023-11-19T14:32:34;19.30;52.40
28959;DHT22;16066;0.000;0.000;2023-11-19T14:35:00;19.30;52.50
28959;DHT22;16066;0.000;0.000;2023-11-19T14:37:26;19.30;52.20
28959;DHT22;16066;0.000;0.000;2023-11-19T14:39:51;19.30;52.40
28959;DHT22;16066;0.000;0.000;2023-11-19T14:42:17;19.30;52.50
28959;DHT22;16066;0.000;0.000;2023-11-19T14:44:43;19.20;52.20
28959;DHT22;16066;0.000;0.000;2023-11-19T14:47:08;19.20;52.30
28959;DHT22;16066;0.000;0.000;2023-11-19T14:49:37;19.20;53.10
28959;DHT22;16066;0.000;0.000;2023-11-19T14:52:04;19.20;52.70
28959;DHT22;16066;0.000;0.000;2023-11-19T14:54:29;19.20;53.00
28959;DHT22;16066;0.000;0.000;2023-11-19T14:56:56;19.20;53.20
28959;DHT22;16066;0.000;0.000;2023-11-19T14:59:22;19.20;53.30
28959;DHT22;16066;0.000;0.000;2023-11-19T15:01:47;19.20;53.40
28959;DHT22;16066;0.000;0.000;2023-11-19T15:04:13;19.20;53.50
28959;DHT22;16066;0.000;0.000;2023-11-19T15:06:38;19.20;53.60
28959;DHT22;16066;0.000;0.000;2023-11-19T15:09:04;19.20;53.60
28959;DHT22;16066;0.000;0.000;2023-11-19T15:11:30;19.20;53.70
28959;DHT22;16066;0.000;0.000;2023-11-19T15:13:56;19.10;53.70
28959;DHT22;16066;0.000;0.000;2023-11-19T15:16:21;19.10;53.70
28959;DHT22;16066;0.000;0.000;2023-11-19T15:18:59;19.10;53.80
28959;DHT22;16066;0.000;0.000;2023-11-19T15:21:26;19.10;53.80
28959;DHT22;16066;0.000;0.000;2023-11-19T15:23:52;19.00;53.80
28959;DHT22;16066;0.000;0.000;2023-11-19T15:26:18;19.00;53.90
28959;DHT22;16066;0.000;0.000;2023-11-19T15:28:44;18.90;54.00
28959;DHT22;16066;0.000;0.000;2023-11-19T15:31:10;18.90;54.00
28959;DHT22;16066;0.000;0.000;2023-11-19T15:33:35;18.90;54.10
28959;DHT22;16066;0.000;0.000;2023-11-19T15:36:01;18.80;54.10
28959;DHT22;16066;0.000;0.000;2023-11-19T15:38:28;18.80;54.20
28959;DHT22;16066;0.000;0.000;2023-11-19T15:40:54;18.80;54.10
28959;DHT22;16066;0.000;0.000;2023-11-19T15:43:20;18.80;54.30
28959;DHT22;16066;0.000;0.000;2023-11-19T15:45:45;18.80;54.10
28959;DHT22;16066;0.000;0.000;2023-11-19T15:48:11;18.80;54.10
28959;DHT22;16066;0.000;0.000;2023-11-19T15:50:39;18.70;54.00
28959;DHT22;16066;0.000;0.000;2023-11-19T15:53:04;18.70;54.00
28959;DHT22;16066;0.000;0.000;2023-11-19T15:55:30;18.70;54.10
28959;DHT22;16066;0.000;0.000;2023-11-19T15:57:56;18.70;54.30
28959;DHT22;16066;0.000;0.000;2023-11-19T16:00:21;18.70;54.00
28959;DHT22;16066;0.000;0.000;2023-11-19T16:02:48;18.80;53.90
28959;DHT22;16066;0.000;0.000;2023-11-19T16:05:15;18.80;53.80
28959;DHT22;16066;0.000;0.000;2023-11-19T16:07:41;18.80;53.60
28959;DHT22;16066;0.000;0.000;2023-11-19T16:10:06;18.80;53.40
28959;DHT22;16066;0.000;0.000;2023-11-19T16:12:35;18.80;53.30
28959;DHT22;16066;0.000;0.000;2023-11-19T16:15:00;18.80;53.40
28959;DHT22;16066;0.000;0.000;2023-11-19T16:17:26;18.90;53.50
28959;DHT22;16066;0.000;0.000;2023-11-19T16:19:54;18.90;53.20
28959;DHT22;16066;0.000;0.000;2023-11-19T16:22:20;18.90;53.20
28959;DHT22;16066;0.000;0.000;2023-11-19T16:24:46;18.90;53.20
28959;DHT22;16066;0.000;0.000;2023-11-19T16:27:14;18.90;53.10
28959;DHT22;16066;0.000;0.000;2023-11-19T16:29:40;18.90;53.10
28959;DHT22;16066;0.000;0.000;2023-11-19T16:32:06;18.80;53.00
28959;DHT22;16066;0.000;0.000;2023-11-19T16:34:32;18.80;53.10
28959;DHT22;16066;0.000;0.000;2023-11-19T16:37:03;18.90;53.30
28959;DHT22;16066;0.000;0.000;2023-11-19T16:39:29;18.80;53.40
28959;DHT22;16066;0.000;0.000;2023-11-19T16:41:55;18.80;53.50
28959;DHT22;16066;0.000;0.000;2023-11-19T16:44:22;18.80;53.40
28959;DHT22;16066;0.000;0.000;2023-11-19T16:46:48;18.80;53.40
28959;DHT22;16066;0.000;0.000;2023-11-19T16:49:13;18.80;53.40
28959;DHT22;16066;0.000;0.000;2023-11-19T16:51:39;18.70;53.40
28959;DHT22;16066;0.000;0.000;2023-11-19T16:54:04;18.70;53.60
28959;DHT22;16066;0.000;0.000;2023-11-19T16:56:30;18.70;53.50
28959;DHT22;16066;0.000;0.000;2023-11-19T16:58:58;18.70;53.50
28959;DHT22;16066;0.000;0.000;2023-11-19T17:01:24;18.70;53.50
28959;DHT22;16066;0.000;0.000;2023-11-19T17:03:49;18.70;53.70
28959;DHT22;16066;0.000;0.000;2023-11-19T17:06:15;18.70;53.50
28959;DHT22;16066;0.000;0.000;2023-11-19T17:08:41;18.70;53.60
28959;DHT22;16066;0.000;0.000;2023-11-19T17:11:06;18.70;53.50
28959;DHT22;16066;0.000;0.000;2023-11-19T17:13:35;18.80;53.60
28959;DHT22;16066;0.000;0.000;2023-11-19T17:16:00;18.80;53.50
28959;DHT22;16066;0.000;0.000;2023-11-19T17:18:26;18.80;53.50
28959;DHT22;16066;0.000;0.000;2023-11-19T17:20:52;18.80;53.20
28959;DHT22;16066;0.000;0.000;2023-11-19T17:23:19;18.80;53.10
28959;DHT22;16066;0.000;0.000;2023-11-19T17:25:45;18.80;53.00
28959;DHT22;16066;0.000;0.000;2023-11-19T17:28:11;18.80;52.90
28959;DHT22;16066;0.000;0.000;2023-11-19T17:30:37;18.90;53.10
28959;DHT22;16066;0.000;0.000;2023-11-19T17:33:04;18.90;52.90
28959;DHT22;16066;0.000;0.000;2023-11-19T17:35:33;18.90;53.00
28959;DHT22;16066;0.000;0.000;2023-11-19T17:38:00;18.80;53.10
28959;DHT22;16066;0.000;0.000;2023-11-19T17:40:26;18.80;53.10
28959;DHT22;16066;0.000;0.000;2023-11-19T17:42:52;18.90;53.20
28959;DHT22;16066;0.000;0.000;2023-11-19T17:45:18;18.90;52.90
28959;DHT22;16066;0.000;0.000;2023-11-19T17:47:43;18.90;53.10
28959;DHT22;16066;0.000;0.000;2023-11-19T17:50:09;18.90;53.10
28959;DHT22;16066;0.000;0.000;2023-11-19T17:52:36;18.90;52.90
28959;DHT22;16066;0.000;0.000;2023-11-19T17:55:01;18.90;53.00
28959;DHT22;16066;0.000;0.000;2023-11-19T17:57:30;18.80;53.30
28959;DHT22;16066;0.000;0.000;2023-11-19T17:59:56;18.80;53.40
28959;DHT22;16066;0.000;0.000;2023-11-19T18:02:22;18.80;53.60
28959;DHT22;16066;0.000;0.000;2023-11-19T18:04:48;18.80;53.70
28959;DHT22;16066;0.000;0.000;2023-11-19T18:07:15;18.80;53.90
28959;DHT22;16066;0.000;0.000;2023-11-19T18:09:42;18.80;53.90
28959;DHT22;16066;0.000;0.000;2023-11-19T18:12:09;18.80;53.70
28959;DHT22;16066;0.000;0.000;2023-11-19T18:14:37;18.70;54.00
28959;DHT22;16066;0.000;0.000;2023-11-19T18:17:04;18.70;54.00
28959;DHT22;16066;0.000;0.000;2023-11-19T18:19:29;18.70;54.20
28959;DHT22;16066;0.000;0.000;2023-11-19T18:21:56;18.80;54.20
28959;DHT22;16066;0.000;0.000;2023-11-19T18:24:23;18.80;53.90
28959;DHT22;16066;0.000;0.000;2023-11-19T18:26:49;18.80;53.80
28959;DHT22;16066;0.000;0.000;2023-11-19T18:29:15;18.80;53.70
28959;DHT22;16066;0.000;0.000;2023-11-19T18:31:42;18.80;53.50
28959;DHT22;16066;0.000;0.000;2023-11-19T18:34:08;18.80;53.60
28959;DHT22;16066;0.000;0.000;2023-11-19T18:36:37;18.80;53.60
28959;DHT22;16066;0.000;0.000;2023-11-19T18:39:06;18.80;53.60
28959;DHT22;16066;0.000;0.000;2023-11-19T18:41:39;18.80;53.40
28959;DHT22;16066;0.000;0.000;2023-11-19T18:44:07;18.80;53.50
28959;DHT22;16066;0.000;0.000;2023-11-19T18:46:33;18.80;53.30
28959;DHT22;16066;0.000;0.000;2023-11-19T18:48:59;18.80;53.60
28959;DHT22;16066;0.000;0.000;2023-11-19T18:51:25;18.80;53.60
28959;DHT22;16066;0.000;0.000;2023-11-19T18:53:51;18.80;53.70
28959;DHT22;16066;0.000;0.000;2023-11-19T18:56:17;18.80;53.90
28959;DHT22;16066;0.000;0.000;2023-11-19T18:58:43;18.80;54.10
28959;DHT22;16066;0.000;0.000;2023-11-19T19:01:09;18.80;54.30
28959;DHT22;16066;0.000;0.000;2023-11-19T19:03:35;18.80;54.20
28959;DHT22;16066;0.000;0.000;2023-11-19T19:06:02;18.80;54.30
28959;DHT22;16066;0.000;0.000;2023-11-19T19:08:29;18.80;54.40
28959;DHT22;16066;0.000;0.000;2023-11-19T19:10:55;18.80;54.30
28959;DHT22;16066;0.000;0.000;2023-11-19T19:13:20;18.80;54.40
28959;DHT22;16066;0.000;0.000;2023-11-19T19:15:47;18.80;54.50
28959;DHT22;16066;0.000;0.000;2023-11-19T19:18:12;18.80;54.30
28959;DHT22;16066;0.000;0.000;2023-11-19T19:20:38;18.70;54.40
28959;DHT22;16066;0.000;0.000;2023-11-19T19:23:03;18.70;54.40
28959;DHT22;16066;0.000;0.000;2023-11-19T19:25:29;18.70;54.50
28959;DHT22;16066;0.000;0.000;2023-11-19T19:27:55;18.70;54.50
28959;DHT22;16066;0.000;0.000;2023-11-19T19:30:21;18.70;54.30
28959;DHT22;16066;0.000;0.000;2023-11-19T19:32:47;18.70;54.30
28959;DHT22;16066;0.000;0.000;2023-11-19T19:35:13;18.60;54.20
28959;DHT22;16066;0.000;0.000;2023-11-19T19:37:39;18.60;54.20
28959;DHT22;16066;0.000;0.000;2023-11-19T19:40:05;18.60;54.20
28959;DHT22;16066;0.000;0.000;2023-11-19T19:42:31;18.60;54.40
28959;DHT22;16066;0.000;0.000;2023-11-19T19:44:57;18.60;54.40
28959;DHT22;16066;0.000;0.000;2023-11-19T19:47:22;18.60;54.60
28959;DHT22;16066;0.000;0.000;2023-11-19T19:49:48;18.60;54.70
28959;DHT22;16066;0.000;0.000;2023-11-19T19:52:13;18.60;54.70
28959;DHT22;16066;0.000;0.000;2023-11-19T19:54:39;18.70;54.80
28959;DHT22;16066;0.000;0.000;2023-11-19T19:57:04;18.70;54.70
28959;DHT22;16066;0.000;0.000;2023-11-19T19:59:30;18.80;54.90
28959;DHT22;16066;0.000;0.000;2023-11-19T20:01:58;18.70;54.70
28959;DHT22;16066;0.000;0.000;2023-11-19T20:04:24;18.70;54.50
28959;DHT22;16066;0.000;0.000;2023-11-19T20:06:51;18.80;54.40
28959;DHT22;16066;0.000;0.000;2023-11-19T20:09:18;18.80;54.50
28959;DHT22;16066;0.000;0.000;2023-11-19T20:11:43;18.80;54.40
28959;DHT22;16066;0.000;0.000;2023-11-19T20:14:12;18.80;54.40
28959;DHT22;16066;0.000;0.000;2023-11-19T20:16:38;18.80;54.40
28959;DHT22;16066;0.000;0.000;2023-11-19T20:19:03;18.80;54.50
28959;DHT22;16066;0.000;0.000;2023-11-19T20:21:29;18.80;54.50
28959;DHT22;16066;0.000;0.000;2023-11-19T20:23:55;18.80;54.60
28959;DHT22;16066;0.000;0.000;2023-11-19T20:26:20;18.70;54.60
28959;DHT22;16066;0.000;0.000;2023-11-19T20:28:47;18.70;54.70
28959;DHT22;16066;0.000;0.000;2023-11-19T20:31:13;18.70;54.70
28959;DHT22;16066;0.000;0.000;2023-11-19T20:33:39;18.70;54.70
28959;DHT22;16066;0.000;0.000;2023-11-19T20:36:06;18.60;54.70
28959;DHT22;16066;0.000;0.000;2023-11-19T20:38:31;18.60;54.80
28959;DHT22;16066;0.000;0.000;2023-11-19T20:40:57;18.60;54.90
28959;DHT22;16066;0.000;0.000;2023-11-19T20:43:25;18.60;54.90
28959;DHT22;16066;0.000;0.000;2023-11-19T20:45:50;18.60;54.80
28959;DHT22;16066;0.000;0.000;2023-11-19T20:48:16;18.60;55.00
28959;DHT22;16066;0.000;0.000;2023-11-19T20:50:42;18.60;55.00
28959;DHT22;16066;0.000;0.000;2023-11-19T20:53:07;18.60;55.10
28959;DHT22;16066;0.000;0.000;2023-11-19T20:55:34;18.50;55.10
28959;DHT22;16066;0.000;0.000;2023-11-19T20:58:00;18.50;55.10
28959;DHT22;16066;0.000;0.000;2023-11-19T21:00:26;18.60;55.50
28959;DHT22;16066;0.000;0.000;2023-11-19T21:02:51;18.50;55.50
28959;DHT22;16066;0.000;0.000;2023-11-19T21:05:19;18.50;56.00
28959;DHT22;16066;0.000;0.000;2023-11-19T21:07:45;18.50;55.40
28959;DHT22;16066;0.000;0.000;2023-11-19T21:10:11;18.50;55.40
28959;DHT22;16066;0.000;0.000;2023-11-19T21:12:40;18.60;55.40
28959;DHT22;16066;0.000;0.000;2023-11-19T21:15:07;18.60;55.40
28959;DHT22;16066;0.000;0.000;2023-11-19T21:17:33;18.60;55.40
28959;DHT22;16066;0.000;0.000;2023-11-19T21:19:59;18.70;55.30
28959;DHT22;16066;0.000;0.000;2023-11-19T21:22:24;18.70;55.20
28959;DHT22;16066;0.000;0.000;2023-11-19T21:24:50;18.70;55.20
28959;DHT22;16066;0.000;0.000;2023-11-19T21:27:17;18.70;55.10
28959;DHT22;16066;0.000;0.000;2023-11-19T21:29:43;18.70;55.10
28959;DHT22;16066;0.000;0.000;2023-11-19T21:32:10;18.70;55.20
28959;DHT22;16066;0.000;0.000;2023-11-19T21:34:36;18.70;55.20
28959;DHT22;16066;0.000;0.000;2023-11-19T21:37:02;18.70;55.30
28959;DHT22;16066;0.000;0.000;2023-11-19T21:39:27;18.70;55.30
28959;DHT22;16066;0.000;0.000;2023-11-19T21:41:53;18.70;55.80
28959;DHT22;16066;0.000;0.000;2023-11-19T21:44:20;18.70;56.20
28959;DHT22;16066;0.000;0.000;2023-11-19T21:46:45;18.70;56.30
28959;DHT22;16066;0.000;0.000;2023-11-19T21:49:11;18.70;56.50
28959;DHT22;16066;0.000;0.000;2023-11-19T21:51:41;18.60;56.40
28959;DHT22;16066;0.000;0.000;2023-11-19T21:54:07;18.60;56.50
28959;DHT22;16066;0.000;0.000;2023-11-19T21:56:34;18.60;56.40
28959;DHT22;16066;0.000;0.000;2023-11-19T21:59:00;18.60;56.60
28959;DHT22;16066;0.000;0.000;2023-11-19T22:01:26;18.50;56.50
28959;DHT22;16066;0.000;0.000;2023-11-19T22:03:51;18.50;56.50
28959;DHT22;16066;0.000;0.000;2023-11-19T22:06:17;18.50;56.50
28959;DHT22;16066;0.000;0.000;2023-11-19T22:08:47;18.40;56.50
28959;DHT22;16066;0.000;0.000;2023-11-19T22:11:12;18.40;56.50
28959;DHT22;16066;0.000;0.000;2023-11-19T22:13:38;18.40;56.40
28959;DHT22;16066;0.000;0.000;2023-11-19T22:16:04;18.30;56.50
28959;DHT22;16066;0.000;0.000;2023-11-19T22:18:30;18.30;56.50
28959;DHT22;16066;0.000;0.000;2023-11-19T22:20:56;18.30;56.60
28959;DHT22;16066;0.000;0.000;2023-11-19T22:23:21;18.30;56.50
28959;DHT22;16066;0.000;0.000;2023-11-19T22:25:47;18.30;56.50
28959;DHT22;16066;0.000;0.000;2023-11-19T22:28:12;18.30;56.40